sensor_id;sensor_type;location;lat;lon;timestamp;pressure;altitude;pressure_sealevel;temperature;humidity
71666;BME280;59503;53.486;10.196;2023-05-22T00:00:04;101740.66;;;18.76;79.36
71666;BME280;59503;53.486;10.196;2023-05-22T00:02:36;101741.84;;;18.75;79.26
71666;BME280;59503;53.486;10.196;2023-05-22T00:05:03;101740.25;;;18.77;79.23
71666;BME280;59503;53.486;10.196;2023-05-22T00:07:29;101743.78;;;18.71;79.66
71666;BME280;59503;53.486;10.196;2023-05-22T00:09:54;101740.25;;;18.77;79.37
71666;BME280;59503;53.486;10.196;2023-05-22T00:12:20;101738.69;;;18.73;79.54
71666;BME280;59503;53.486;10.196;2023-05-22T00:14:45;101734.31;;;18.72;79.17
71666;BME280;59503;53.486;10.196;2023-05-22T00:17:10;101738.69;;;18.73;79.17
71666;BME280;59503;53.486;10.196;2023-05-22T00:19:39;101727.63;;;18.58;80.08
71666;BME280;59503;53.486;10.196;2023-05-22T00:22:04;101728.44;;;18.63;79.26
71666;BME280;59503;53.486;10.196;2023-05-22T00:24:29;101731.59;;;18.65;78.17
71666;BME280;59503;53.486;10.196;2023-05-22T00:26:56;101729.59;;;18.62;78.84
71666;BME280;59503;53.486;10.196;2023-05-22T00:29:21;101738.66;;;18.58;79.17
71666;BME280;59503;53.486;10.196;2023-05-22T00:31:47;101735.50;;;18.56;78.46
71666;BME280;59503;53.486;10.196;2023-05-22T00:34:12;101733.53;;;18.53;78.29
71666;BME280;59503;53.486;10.196;2023-05-22T00:36:37;101728.41;;;18.52;78.05
71666;BME280;59503;53.486;10.196;2023-05-22T00:39:03;101737.47;;;18.52;77.90
71666;BME280;59503;53.486;10.196;2023-05-22T00:41:29;101733.53;;;18.53;76.59
71666;BME280;59503;53.486;10.196;2023-05-22T00:43:54;101733.53;;;18.53;77.09
71666;BME280;59503;53.486;10.196;2023-05-22T00:46:19;101730.78;;;18.50;77.60
71666;BME280;59503;53.486;10.196;2023-05-22T00:48:46;101731.16;;;18.41;77.74
71666;BME280;59503;53.486;10.196;2023-05-22T00:51:12;101724.09;;;18.47;77.53
71666;BME280;59503;53.486;10.196;2023-05-22T00:53:38;101725.22;;;18.36;77.47
71666;BME280;59503;53.486;10.196;2023-05-22T00:56:04;101731.50;;;18.33;77.58
71666;BME280;59503;53.486;10.196;2023-05-22T00:58:29;101733.09;;;18.37;76.43
71666;BME280;59503;53.486;10.196;2023-05-22T01:00:55;101735.44;;;18.39;76.54
71666;BME280;59503;53.486;10.196;2023-05-22T01:03:21;101740.16;;;18.31;76.74
71666;BME280;59503;53.486;10.196;2023-05-22T01:05:50;101729.53;;;18.37;76.33
71666;BME280;59503;53.486;10.196;2023-05-22T01:08:17;101722.84;;;18.31;76.38
71666;BME280;59503;53.486;10.196;2023-05-22T01:10:42;101736.22;;;18.29;76.16
71666;BME280;59503;53.486;10.196;2023-05-22T01:13:30;101725.19;;;18.25;76.37
71666;BME280;59503;53.486;10.196;2023-05-22T01:27:20;101726.38;;;18.17;76.38
71666;BME280;59503;53.486;10.196;2023-05-22T01:29:42;101722.03;;;18.09;76.88
71666;BME280;59503;53.486;10.196;2023-05-22T01:32:13;101708.22;;;17.99;77.32
71666;BME280;59503;53.486;10.196;2023-05-22T01:34:43;101719.97;;;17.89;77.99
71666;BME280;59503;53.486;10.196;2023-05-22T01:37:09;101712.88;;;17.84;78.29
71666;BME280;59503;53.486;10.196;2023-05-22T01:39:36;101714.81;;;17.77;78.86
71666;BME280;59503;53.486;10.196;2023-05-22T01:42:01;101718.38;;;17.77;78.62
71666;BME280;59503;53.486;10.196;2023-05-22T01:44:27;101713.63;;;17.74;78.63
71666;BME280;59503;53.486;10.196;2023-05-22T01:46:52;101714.81;;;17.73;78.30
71666;BME280;59503;53.486;10.196;2023-05-22T01:49:18;101711.22;;;17.69;78.83
71666;BME280;59503;53.486;10.196;2023-05-22T01:51:51;101717.16;;;17.71;78.32
71666;BME280;59503;53.486;10.196;2023-05-22T01:56:53;101720.66;;;17.65;78.64
71666;BME280;59503;53.486;10.196;2023-05-22T01:59:58;101710.03;;;17.63;78.61
71666;BME280;59503;53.486;10.196;2023-05-22T02:02:32;101709.13;;;17.45;79.41
71666;BME280;59503;53.486;10.196;2023-05-22T02:05:02;101714.69;;;17.56;78.63
71666;BME280;59503;53.486;10.196;2023-05-22T02:07:31;101711.56;;;17.54;78.83
71666;BME280;59503;53.486;10.196;2023-05-22T02:09:57;101721.81;;;17.60;78.18
71666;BME280;59503;53.486;10.196;2023-05-22T02:12:23;101709.63;;;17.61;78.13
71666;BME280;59503;53.486;10.196;2023-05-22T02:14:49;101712.38;;;17.58;78.43
71666;BME280;59503;53.486;10.196;2023-05-22T02:17:15;101703.31;;;17.50;78.66
71666;BME280;59503;53.486;10.196;2023-05-22T02:19:43;101698.22;;;17.52;78.58
71666;BME280;59503;53.486;10.196;2023-05-22T02:22:08;101698.16;;;17.45;78.96
71666;BME280;59503;53.486;10.196;2023-05-22T02:24:38;101698.16;;;17.45;78.79
71666;BME280;59503;53.486;10.196;2023-05-22T02:27:05;101695.38;;;17.42;79.36
71666;BME280;59503;53.486;10.196;2023-05-22T02:29:31;101699.66;;;17.39;79.35
71666;BME280;59503;53.486;10.196;2023-05-22T02:31:56;101703.56;;;17.34;79.78
71666;BME280;59503;53.486;10.196;2023-05-22T02:34:22;101693.47;;;17.49;79.07
71666;BME280;59503;53.486;10.196;2023-05-22T02:36:47;101689.09;;;17.45;79.10
71666;BME280;59503;53.486;10.196;2023-05-22T02:39:19;101693.03;;;17.44;79.03
71666;BME280;59503;53.486;10.196;2023-05-22T02:41:44;101685.13;;;17.35;78.94
71666;BME280;59503;53.486;10.196;2023-05-22T02:44:10;101687.19;;;17.49;77.75
71666;BME280;59503;53.486;10.196;2023-05-22T02:46:35;101680.91;;;17.48;77.29
71666;BME280;59503;53.486;10.196;2023-05-22T02:49:01;101680.50;;;17.46;77.17
71666;BME280;59503;53.486;10.196;2023-05-22T02:51:26;101674.53;;;17.37;77.20
71666;BME280;59503;53.486;10.196;2023-05-22T02:53:52;101681.66;;;17.45;76.06
71666;BME280;59503;53.486;10.196;2023-05-22T02:56:17;101674.25;;;17.53;75.14
71666;BME280;59503;53.486;10.196;2023-05-22T02:58:43;101680.13;;;17.51;75.72
71666;BME280;59503;53.486;10.196;2023-05-22T03:01:08;101674.28;;;17.60;74.81
71666;BME280;59503;53.486;10.196;2023-05-22T03:03:34;101666.78;;;17.53;74.95
71666;BME280;59503;53.486;10.196;2023-05-22T03:06:00;101663.66;;;17.55;74.48
71666;BME280;59503;53.486;10.196;2023-05-22T03:08:28;101671.09;;;17.51;74.84
71666;BME280;59503;53.486;10.196;2023-05-22T03:10:55;101667.16;;;17.48;74.40
71666;BME280;59503;53.486;10.196;2023-05-22T03:13:20;101662.06;;;17.50;74.29
71666;BME280;59503;53.486;10.196;2023-05-22T03:15:46;101662.41;;;17.45;74.34
71666;BME280;59503;53.486;10.196;2023-05-22T03:18:11;101660.81;;;17.44;74.10
71666;BME280;59503;53.486;10.196;2023-05-22T03:20:37;101667.09;;;17.41;74.11
71666;BME280;59503;53.486;10.196;2023-05-22T03:23:03;101660.44;;;17.42;73.62
71666;BME280;59503;53.486;10.196;2023-05-22T03:25:29;101670.63;;;17.38;74.44
71666;BME280;59503;53.486;10.196;2023-05-22T03:27:54;101666.28;;;17.33;74.65
71666;BME280;59503;53.486;10.196;2023-05-22T03:30:20;101683.97;;;17.39;74.23
71666;BME280;59503;53.486;10.196;2023-05-22T03:32:46;101669.78;;;17.34;74.77
71666;BME280;59503;53.486;10.196;2023-05-22T03:35:11;101665.47;;;17.29;74.38
71666;BME280;59503;53.486;10.196;2023-05-22T03:37:39;101669.03;;;17.33;74.00
71666;BME280;59503;53.486;10.196;2023-05-22T03:40:05;101664.34;;;17.41;73.58
71666;BME280;59503;53.486;10.196;2023-05-22T03:42:31;101665.94;;;17.46;73.71
71666;BME280;59503;53.486;10.196;2023-05-22T03:44:56;101666.66;;;17.35;73.92
71666;BME280;59503;53.486;10.196;2023-05-22T03:47:21;101650.13;;;17.25;74.20
71666;BME280;59503;53.486;10.196;2023-05-22T03:49:47;101660.41;;;17.35;74.47
71666;BME280;59503;53.486;10.196;2023-05-22T03:52:12;101654.09;;;17.34;74.20
71666;BME280;59503;53.486;10.196;2023-05-22T03:54:37;101662.38;;;17.38;74.20
71666;BME280;59503;53.486;10.196;2023-05-22T03:57:03;101662.69;;;17.26;74.08
71666;BME280;59503;53.486;10.196;2023-05-22T03:59:28;101665.06;;;17.31;74.16
71666;BME280;59503;53.486;10.196;2023-05-22T04:01:54;101663.50;;;17.30;73.92
71666;BME280;59503;53.486;10.196;2023-05-22T04:04:22;101664.66;;;17.29;74.04
71666;BME280;59503;53.486;10.196;2023-05-22T04:06:50;101662.72;;;17.33;73.45
71666;BME280;59503;53.486;10.196;2023-05-22T04:09:16;101663.50;;;17.30;73.60
71666;BME280;59503;53.486;10.196;2023-05-22T04:11:41;101675.28;;;17.34;73.65
71666;BME280;59503;53.486;10.196;2023-05-22T04:14:07;101660.03;;;17.40;73.33
71666;BME280;59503;53.486;10.196;2023-05-22T04:16:33;101667.94;;;17.49;72.73
71666;BME280;59503;53.486;10.196;2023-05-22T04:18:58;101660.09;;;17.51;72.53
71666;BME280;59503;53.486;10.196;2023-05-22T04:21:30;101645.97;;;17.49;71.38
71666;BME280;59503;53.486;10.196;2023-05-22T04:24:00;101669.59;;;17.64;71.10
71666;BME280;59503;53.486;10.196;2023-05-22T04:26:25;101655.88;;;17.81;68.83
71666;BME280;59503;53.486;10.196;2023-05-22T04:28:54;101655.50;;;17.86;68.42
71666;BME280;59503;53.486;10.196;2023-05-22T04:31:19;101663.00;;;17.93;67.69
71666;BME280;59503;53.486;10.196;2023-05-22T04:33:47;101653.97;;;18.06;67.31
71666;BME280;59503;53.486;10.196;2023-05-22T04:36:14;101654.38;;;18.08;67.09
71666;BME280;59503;53.486;10.196;2023-05-22T04:38:40;101659.13;;;18.18;66.78
71666;BME280;59503;53.486;10.196;2023-05-22T04:41:05;101660.31;;;18.17;66.17
71666;BME280;59503;53.486;10.196;2023-05-22T04:43:33;101664.63;;;18.18;66.32
71666;BME280;59503;53.486;10.196;2023-05-22T04:45:58;101649.69;;;18.16;66.79
71666;BME280;59503;53.486;10.196;2023-05-22T04:48:24;101652.84;;;18.14;66.52
71666;BME280;59503;53.486;10.196;2023-05-22T04:50:50;101656.78;;;18.24;66.01
71666;BME280;59503;53.486;10.196;2023-05-22T04:53:15;101656.78;;;18.24;65.81
71666;BME280;59503;53.486;10.196;2023-05-22T04:55:40;101664.28;;;18.37;64.83
71666;BME280;59503;53.486;10.196;2023-05-22T04:58:06;101655.66;;;18.42;64.15
71666;BME280;59503;53.486;10.196;2023-05-22T05:00:32;101659.97;;;18.47;63.78
71666;BME280;59503;53.486;10.196;2023-05-22T05:02:57;101657.22;;;18.50;63.11
71666;BME280;59503;53.486;10.196;2023-05-22T05:05:24;101651.31;;;18.55;62.52
71666;BME280;59503;53.486;10.196;2023-05-22T05:07:50;101648.16;;;18.64;62.48
71666;BME280;59503;53.486;10.196;2023-05-22T05:10:16;101651.31;;;18.70;61.44
71666;BME280;59503;53.486;10.196;2023-05-22T05:12:42;101646.97;;;18.76;60.97
71666;BME280;59503;53.486;10.196;2023-05-22T05:15:07;101650.13;;;18.78;60.42
71666;BME280;59503;53.486;10.196;2023-05-22T05:17:33;101644.22;;;18.83;60.36
71666;BME280;59503;53.486;10.196;2023-05-22T05:19:58;101646.16;;;19.03;59.58
71666;BME280;59503;53.486;10.196;2023-05-22T05:22:24;101642.63;;;18.99;59.59
71666;BME280;59503;53.486;10.196;2023-05-22T05:24:49;101646.53;;;19.09;58.87
71666;BME280;59503;53.486;10.196;2023-05-22T05:27:14;101648.03;;;19.27;59.12
71666;BME280;59503;53.486;10.196;2023-05-22T05:29:40;101650.81;;;19.27;59.04
71666;BME280;59503;53.486;10.196;2023-05-22T05:32:06;101647.28;;;19.27;57.72
71666;BME280;59503;53.486;10.196;2023-05-22T05:34:31;101655.13;;;19.39;57.74
71666;BME280;59503;53.486;10.196;2023-05-22T05:36:56;101651.53;;;19.56;58.12
71666;BME280;59503;53.486;10.196;2023-05-22T05:39:22;101641.69;;;19.51;57.06
71666;BME280;59503;53.486;10.196;2023-05-22T05:41:47;101647.84;;;19.87;57.08
71666;BME280;59503;53.486;10.196;2023-05-22T05:44:12;101644.25;;;19.90;56.24
71666;BME280;59503;53.486;10.196;2023-05-22T05:46:38;101649.75;;;19.94;56.00
71666;BME280;59503;53.486;10.196;2023-05-22T05:49:07;101650.09;;;20.03;56.27
71666;BME280;59503;53.486;10.196;2023-05-22T05:51:34;101652.47;;;20.04;55.21
71666;BME280;59503;53.486;10.196;2023-05-22T05:53:59;101648.97;;;19.93;55.87
71666;BME280;59503;53.486;10.196;2023-05-22T05:56:25;101643.81;;;20.02;56.19
71666;BME280;59503;53.486;10.196;2023-05-22T05:58:51;101635.91;;;20.04;55.96
71666;BME280;59503;53.486;10.196;2023-05-22T06:01:16;101643.72;;;20.16;56.15
71666;BME280;59503;53.486;10.196;2023-05-22T06:03:42;101642.94;;;20.19;55.41
71666;BME280;59503;53.486;10.196;2023-05-22T06:06:07;101630.28;;;20.22;55.78
71666;BME280;59503;53.486;10.196;2023-05-22T06:08:33;101630.94;;;20.36;55.59
71666;BME280;59503;53.486;10.196;2023-05-22T06:10:59;101631.69;;;20.44;55.33
71666;BME280;59503;53.486;10.196;2023-05-22T06:13:24;101640.22;;;20.60;54.74
71666;BME280;59503;53.486;10.196;2023-05-22T06:15:49;101630.06;;;20.46;54.92
71666;BME280;59503;53.486;10.196;2023-05-22T06:18:15;101638.00;;;20.44;55.10
71666;BME280;59503;53.486;10.196;2023-05-22T06:20:41;101628.94;;;20.44;55.71
71666;BME280;59503;53.486;10.196;2023-05-22T06:23:07;101618.84;;;20.67;54.76
71666;BME280;59503;53.486;10.196;2023-05-22T06:25:32;101625.75;;;20.89;53.87
71666;BME280;59503;53.486;10.196;2023-05-22T06:27:58;101633.59;;;20.94;53.45
71666;BME280;59503;53.486;10.196;2023-05-22T06:30:25;101632.56;;;21.19;52.82
71666;BME280;59503;53.486;10.196;2023-05-22T06:32:50;101631.28;;;21.60;51.82
71666;BME280;59503;53.486;10.196;2023-05-22T06:35:16;101641.09;;;21.95;50.68
71666;BME280;59503;53.486;10.196;2023-05-22T06:37:42;101637.72;;;22.10;50.35
71666;BME280;59503;53.486;10.196;2023-05-22T06:40:09;101644.31;;;22.43;49.14
71666;BME280;59503;53.486;10.196;2023-05-22T06:42:35;101642.34;;;22.67;48.93
71666;BME280;59503;53.486;10.196;2023-05-22T06:45:00;101637.22;;;22.65;49.46
71666;BME280;59503;53.486;10.196;2023-05-22T06:47:26;101649.84;;;22.43;49.47
71666;BME280;59503;53.486;10.196;2023-05-22T06:49:51;101636.66;;;22.54;49.41
71666;BME280;59503;53.486;10.196;2023-05-22T06:52:16;101644.50;;;22.33;49.44
71666;BME280;59503;53.486;10.196;2023-05-22T06:54:42;101639.59;;;22.17;50.16
71666;BME280;59503;53.486;10.196;2023-05-22T06:57:08;101651.81;;;22.19;50.48
71666;BME280;59503;53.486;10.196;2023-05-22T06:59:34;101647.84;;;21.94;50.67
71666;BME280;59503;53.486;10.196;2023-05-22T07:01:59;101652.97;;;21.95;51.62
71666;BME280;59503;53.486;10.196;2023-05-22T07:04:25;101648.97;;;22.23;50.77
71666;BME280;59503;53.486;10.196;2023-05-22T07:06:51;101641.84;;;22.49;49.20
71666;BME280;59503;53.486;10.196;2023-05-22T07:09:18;101632.88;;;22.87;48.48
71666;BME280;59503;53.486;10.196;2023-05-22T07:11:44;101645.88;;;23.53;47.83
71666;BME280;59503;53.486;10.196;2023-05-22T07:14:10;101652.53;;;23.59;46.84
71666;BME280;59503;53.486;10.196;2023-05-22T07:16:37;101649.63;;;23.82;46.12
71666;BME280;59503;53.486;10.196;2023-05-22T07:19:02;101651.91;;;23.87;45.13
71666;BME280;59503;53.486;10.196;2023-05-22T07:21:27;101640.28;;;23.92;45.10
71666;BME280;59503;53.486;10.196;2023-05-22T07:23:56;101641.91;;;24.09;45.47
71666;BME280;59503;53.486;10.196;2023-05-22T07:26:21;101638.88;;;24.35;44.10
71666;BME280;59503;53.486;10.196;2023-05-22T07:28:47;101632.53;;;24.35;43.67
71666;BME280;59503;53.486;10.196;2023-05-22T07:31:12;101637.72;;;24.65;43.69
71666;BME280;59503;53.486;10.196;2023-05-22T07:33:37;101638.63;;;24.46;43.97
71666;BME280;59503;53.486;10.196;2023-05-22T07:36:03;101632.69;;;24.28;43.86
71666;BME280;59503;53.486;10.196;2023-05-22T07:38:28;101631.94;;;24.27;43.61
71666;BME280;59503;53.486;10.196;2023-05-22T07:40:54;101632.47;;;24.22;44.19
71666;BME280;59503;53.486;10.196;2023-05-22T07:43:20;101628.63;;;24.48;43.21
71666;BME280;59503;53.486;10.196;2023-05-22T07:45:45;101623.50;;;24.47;43.20
71666;BME280;59503;53.486;10.196;2023-05-22T07:48:10;101641.59;;;24.71;44.21
71666;BME280;59503;53.486;10.196;2023-05-22T07:50:36;101620.53;;;24.38;42.53
71666;BME280;59503;53.486;10.196;2023-05-22T07:53:01;101618.47;;;24.26;42.18
71666;BME280;59503;53.486;10.196;2023-05-22T07:55:28;101622.25;;;24.00;42.69
71666;BME280;59503;53.486;10.196;2023-05-22T07:57:54;101617.34;;;24.07;43.16
71666;BME280;59503;53.486;10.196;2023-05-22T08:00:20;101624.34;;;24.28;42.46
71666;BME280;59503;53.486;10.196;2023-05-22T08:02:45;101623.41;;;24.18;42.29
71666;BME280;59503;53.486;10.196;2023-05-22T08:05:11;101612.03;;;24.29;42.14
71666;BME280;59503;53.486;10.196;2023-05-22T08:07:36;101618.53;;;24.38;42.06
71666;BME280;59503;53.486;10.196;2023-05-22T08:10:12;101624.28;;;24.47;42.54
71666;BME280;59503;53.486;10.196;2023-05-22T08:12:37;101630.59;;;24.48;42.23
71666;BME280;59503;53.486;10.196;2023-05-22T08:15:03;101620.72;;;24.79;42.86
71666;BME280;59503;53.486;10.196;2023-05-22T08:17:28;101618.72;;;24.80;41.67
71666;BME280;59503;53.486;10.196;2023-05-22T08:19:54;101626.00;;;24.90;41.45
71666;BME280;59503;53.486;10.196;2023-05-22T08:22:19;101626.56;;;24.97;41.16
71666;BME280;59503;53.486;10.196;2023-05-22T08:24:45;101612.00;;;24.93;40.88
71666;BME280;59503;53.486;10.196;2023-05-22T08:27:10;101619.75;;;25.27;41.44
71666;BME280;59503;53.486;10.196;2023-05-22T08:29:35;101613.88;;;25.53;40.93
71666;BME280;59503;53.486;10.196;2023-05-22T08:32:01;101623.25;;;25.72;40.57
71666;BME280;59503;53.486;10.196;2023-05-22T08:34:27;101619.66;;;25.59;40.28
71666;BME280;59503;53.486;10.196;2023-05-22T08:36:52;101617.63;;;25.47;39.98
71666;BME280;59503;53.486;10.196;2023-05-22T08:39:17;101617.34;;;25.83;39.38
71666;BME280;59503;53.486;10.196;2023-05-22T08:41:43;101607.41;;;25.82;38.93
71666;BME280;59503;53.486;10.196;2023-05-22T08:44:09;101609.53;;;26.28;39.43
71666;BME280;59503;53.486;10.196;2023-05-22T08:46:38;101609.09;;;26.17;38.42
71666;BME280;59503;53.486;10.196;2023-05-22T08:49:07;101606.41;;;26.38;38.39
71666;BME280;59503;53.486;10.196;2023-05-22T08:51:37;101604.41;;;26.39;38.29
71666;BME280;59503;53.486;10.196;2023-05-22T08:54:04;101603.03;;;26.43;37.86
71666;BME280;59503;53.486;10.196;2023-05-22T08:56:30;101599.28;;;26.25;38.47
71666;BME280;59503;53.486;10.196;2023-05-22T08:58:56;101589.53;;;26.54;38.41
71666;BME280;59503;53.486;10.196;2023-05-22T09:01:22;101580.47;;;26.63;38.15
71666;BME280;59503;53.486;10.196;2023-05-22T09:03:47;101577.97;;;26.65;38.14
71666;BME280;59503;53.486;10.196;2023-05-22T09:06:15;101578.25;;;26.92;38.27
71666;BME280;59503;53.486;10.196;2023-05-22T09:08:41;101572.81;;;27.32;37.11
71666;BME280;59503;53.486;10.196;2023-05-22T09:11:06;101577.66;;;27.40;36.54
71666;BME280;59503;53.486;10.196;2023-05-22T09:13:32;101568.81;;;27.72;36.26
71666;BME280;59503;53.486;10.196;2023-05-22T09:16:08;101572.38;;;28.13;36.15
71666;BME280;59503;53.486;10.196;2023-05-22T09:18:36;101568.22;;;28.17;35.28
71666;BME280;59503;53.486;10.196;2023-05-22T09:21:02;101567.06;;;28.72;34.30
71666;BME280;59503;53.486;10.196;2023-05-22T09:23:28;101564.31;;;28.15;35.01
71666;BME280;59503;53.486;10.196;2023-05-22T09:25:56;101571.16;;;28.23;33.83
71666;BME280;59503;53.486;10.196;2023-05-22T09:28:23;101566.81;;;28.22;33.67
71666;BME280;59503;53.486;10.196;2023-05-22T09:30:49;101567.78;;;27.48;33.72
71666;BME280;59503;53.486;10.196;2023-05-22T09:33:15;101565.53;;;27.13;34.11
71666;BME280;59503;53.486;10.196;2023-05-22T09:35:41;101572.94;;;27.07;34.16
71666;BME280;59503;53.486;10.196;2023-05-22T09:38:08;101556.38;;;26.90;34.68
71666;BME280;59503;53.486;10.196;2023-05-22T09:40:36;101559.03;;;26.72;34.80
71666;BME280;59503;53.486;10.196;2023-05-22T09:43:09;101553.19;;;26.45;35.50
71666;BME280;59503;53.486;10.196;2023-05-22T09:45:35;101552.31;;;26.70;35.09
71666;BME280;59503;53.486;10.196;2023-05-22T09:48:05;101555.19;;;27.22;34.64
71666;BME280;59503;53.486;10.196;2023-05-22T09:50:31;101548.75;;;27.65;34.17
71666;BME280;59503;53.486;10.196;2023-05-22T09:53:00;101544.72;;;28.15;33.92
71666;BME280;59503;53.486;10.196;2023-05-22T09:55:27;101552.28;;;28.72;33.99
71666;BME280;59503;53.486;10.196;2023-05-22T09:57:54;101544.06;;;28.59;32.58
71666;BME280;59503;53.486;10.196;2023-05-22T10:00:21;101552.09;;;29.02;32.16
71666;BME280;59503;53.486;10.196;2023-05-22T10:02:52;101534.22;;;28.91;32.16
71666;BME280;59503;53.486;10.196;2023-05-22T10:05:19;101528.63;;;28.55;33.05
71666;BME280;59503;53.486;10.196;2023-05-22T10:07:48;101527.53;;;28.61;32.86
71666;BME280;59503;53.486;10.196;2023-05-22T10:10:16;101536.41;;;28.96;32.60
71666;BME280;59503;53.486;10.196;2023-05-22T10:12:44;101528.94;;;29.11;32.99
71666;BME280;59503;53.486;10.196;2023-05-22T10:15:12;101521.88;;;29.24;31.51
71666;BME280;59503;53.486;10.196;2023-05-22T10:17:38;101517.28;;;28.85;31.94
71666;BME280;59503;53.486;10.196;2023-05-22T10:20:06;101518.56;;;28.57;32.66
71666;BME280;59503;53.486;10.196;2023-05-22T10:22:36;101508.13;;;28.76;32.63
71666;BME280;59503;53.486;10.196;2023-05-22T10:25:03;101510.41;;;28.95;32.03
71666;BME280;59503;53.486;10.196;2023-05-22T10:27:30;101520.06;;;28.40;32.67
71666;BME280;59503;53.486;10.196;2023-05-22T10:30:01;101505.16;;;28.43;33.34
71666;BME280;59503;53.486;10.196;2023-05-22T10:32:46;101505.28;;;28.13;34.68
71666;BME280;59503;53.486;10.196;2023-05-22T10:37:52;101496.28;;;28.81;34.48
71666;BME280;59503;53.486;10.196;2023-05-22T10:40:30;101492.56;;;28.84;33.09
71666;BME280;59503;53.486;10.196;2023-05-22T10:43:01;101496.41;;;29.04;32.53
71666;BME280;59503;53.486;10.196;2023-05-22T10:45:27;101492.72;;;28.80;31.91
71666;BME280;59503;53.486;10.196;2023-05-22T10:48:06;101492.88;;;28.86;31.80
71666;BME280;59503;53.486;10.196;2023-05-22T10:50:32;101486.69;;;28.73;32.18
71666;BME280;59503;53.486;10.196;2023-05-22T10:53:24;101476.09;;;28.41;32.67
71666;BME280;59503;53.486;10.196;2023-05-22T10:55:54;101474.06;;;28.32;32.84
71666;BME280;59503;53.486;10.196;2023-05-22T10:58:33;101475.84;;;29.07;32.37
71666;BME280;59503;53.486;10.196;2023-05-22T11:01:14;101472.16;;;29.76;33.46
71666;BME280;59503;53.486;10.196;2023-05-22T11:06:34;101471.38;;;29.43;30.42
71666;BME280;59503;53.486;10.196;2023-05-22T11:14:56;101468.94;;;28.76;31.16
71666;BME280;59503;53.486;10.196;2023-05-22T11:17:26;101465.06;;;28.37;30.79
71666;BME280;59503;53.486;10.196;2023-05-22T11:22:39;101453.41;;;28.66;30.98
71666;BME280;59503;53.486;10.196;2023-05-22T11:25:10;101467.88;;;28.64;31.70
71666;BME280;59503;53.486;10.196;2023-05-22T11:27:36;101456.84;;;28.61;31.15
71666;BME280;59503;53.486;10.196;2023-05-22T11:30:04;101455.84;;;28.82;31.77
71666;BME280;59503;53.486;10.196;2023-05-22T11:32:29;101457.94;;;29.23;30.97
71666;BME280;59503;53.486;10.196;2023-05-22T11:34:55;101453.78;;;29.42;30.92
71666;BME280;59503;53.486;10.196;2023-05-22T11:37:21;101451.63;;;29.37;30.50
71666;BME280;59503;53.486;10.196;2023-05-22T11:40:02;101449.16;;;29.72;31.23
71666;BME280;59503;53.486;10.196;2023-05-22T11:42:29;101439.47;;;29.73;31.76
71666;BME280;59503;53.486;10.196;2023-05-22T11:44:55;101445.56;;;29.71;30.52
71666;BME280;59503;53.486;10.196;2023-05-22T11:47:20;101433.19;;;29.54;29.15
71666;BME280;59503;53.486;10.196;2023-05-22T11:49:46;101439.06;;;29.65;29.59
71666;BME280;59503;53.486;10.196;2023-05-22T11:52:11;101423.53;;;29.22;29.97
71666;BME280;59503;53.486;10.196;2023-05-22T11:54:37;101435.63;;;29.70;29.73
71666;BME280;59503;53.486;10.196;2023-05-22T11:57:05;101431.88;;;29.64;29.72
71666;BME280;59503;53.486;10.196;2023-05-22T11:59:31;101420.34;;;29.62;29.13
71666;BME280;59503;53.486;10.196;2023-05-22T12:01:56;101413.38;;;29.67;30.44
71666;BME280;59503;53.486;10.196;2023-05-22T12:04:23;101413.69;;;29.36;29.58
71666;BME280;59503;53.486;10.196;2023-05-22T12:06:49;101413.63;;;29.12;30.35
71666;BME280;59503;53.486;10.196;2023-05-22T12:09:15;101400.63;;;29.33;30.23
71666;BME280;59503;53.486;10.196;2023-05-22T12:11:45;101407.78;;;29.67;29.73
71666;BME280;59503;53.486;10.196;2023-05-22T12:14:10;101399.19;;;29.70;29.59
71666;BME280;59503;53.486;10.196;2023-05-22T12:16:36;101408.53;;;29.67;30.11
71666;BME280;59503;53.486;10.196;2023-05-22T12:19:09;101401.25;;;29.84;28.97
71666;BME280;59503;53.486;10.196;2023-05-22T12:21:36;101401.88;;;30.03;28.23
71666;BME280;59503;53.486;10.196;2023-05-22T12:24:03;101401.13;;;30.02;28.05
71666;BME280;59503;53.486;10.196;2023-05-22T12:26:30;101395.63;;;29.84;28.10
71666;BME280;59503;53.486;10.196;2023-05-22T12:28:57;101392.38;;;30.24;28.40
71666;BME280;59503;53.486;10.196;2023-05-22T12:31:22;101388.31;;;30.39;27.21
71666;BME280;59503;53.486;10.196;2023-05-22T12:33:52;101396.03;;;30.15;27.37
71666;BME280;59503;53.486;10.196;2023-05-22T12:36:17;101388.16;;;30.58;27.51
71666;BME280;59503;53.486;10.196;2023-05-22T12:38:43;101378.44;;;31.02;27.62
71666;BME280;59503;53.486;10.196;2023-05-22T12:41:08;101396.19;;;31.63;25.32
71666;BME280;59503;53.486;10.196;2023-05-22T12:43:34;101384.03;;;32.12;25.36
71666;BME280;59503;53.486;10.196;2023-05-22T12:45:59;101379.81;;;31.82;23.91
71666;BME280;59503;53.486;10.196;2023-05-22T12:48:25;101386.41;;;32.44;24.33
71666;BME280;59503;53.486;10.196;2023-05-22T12:50:50;101375.81;;;31.48;24.59
71666;BME280;59503;53.486;10.196;2023-05-22T12:53:16;101368.56;;;31.82;25.37
71666;BME280;59503;53.486;10.196;2023-05-22T12:55:41;101372.16;;;31.82;25.03
71666;BME280;59503;53.486;10.196;2023-05-22T12:58:07;101366.09;;;31.69;25.03
71666;BME280;59503;53.486;10.196;2023-05-22T13:00:33;101367.09;;;31.66;25.60
71666;BME280;59503;53.486;10.196;2023-05-22T13:02:58;101368.50;;;31.96;25.01
71666;BME280;59503;53.486;10.196;2023-05-22T13:05:24;101359.63;;;31.83;24.95